Latest Weather Observations for Essendon Airport

IDV60801

Issued at 10:52 am EST Wednesday 28 September 2022 (issued every 10 minutes, with the page automatically refreshed every 10 minutes)

About weather observations | Map of weather stations | Latest weather observations for VIC | Other Formats
Station Details ID: 086038 Name: ESSENDON AIRPORT Lat: -37.73 Lon: 144.91 Height: 78.4 m
Data from the previous 72 hours. | See also: Recent months at Essendon Airport
Date/Time
EST
Temp
°C
App
Temp
°C
Dew
Point
°C
Rel
Hum
%
Delta-T
°C
Wind Press
QNH
hPa
Press
MSL
hPa
Rain since
9am
mm
Dir  Spd
km/h
Gust
km/h
Spd
kts
Gust
kts
28/10:30am 13.7 10.1 13.1 96 0.3 S 24 37 13 20 1019.2 1019.2 0.2
28/10:00am 13.3 9.7 13.0 98 0.2 S 24 32 13 17 1019.2 1019.2 0.2
28/09:30am 12.8 9.5 12.8 100 0.0 S 22 33 12 18 1019.1 1019.1 0.2
28/09:00am 13.1 10.4 12.9 99 0.1 S 19 28 10 15 1018.8 1018.8 8.4
28/08:30am 12.8 9.9 12.8 100 0.0 S 20 30 11 16 1018.4 1018.4 8.4
28/08:12am 12.7 9.7 12.5 99 0.1 S 20 32 11 17 1018.3 1018.3 8.4
28/08:10am 12.7 9.3 12.5 99 0.1 S 22 32 12 17 1018.2 1018.2 8.4
28/08:00am 12.8 9.5 12.8 100 0.0 S 22 30 12 16 1018.1 1018.1 8.4
28/07:30am 12.4 9.9 12.4 100 0.0 SSE 17 24 9 13 1017.8 1017.8 8.4
28/07:00am 12.3 9.2 12.3 100 0.0 SSE 20 30 11 16 1017.5 1017.5 8.4
28/06:59am 12.3 9.2 12.3 100 0.0 SSE 20 30 11 16 1017.5 1017.5 8.4
28/06:43am 12.1 9.0 12.1 100 0.0 SSE 20 28 11 15 1017.2 1017.2 8.2
28/06:41am 12.2 9.1 12.2 100 0.0 SSE 20 28 11 15 1017.2 1017.2 8.2
28/06:30am 12.2 9.3 12.2 100 0.0 SSE 19 24 10 13 1017.1 1017.1 7.8
28/06:00am 12.3 8.8 12.3 100 0.0 SSE 22 30 12 16 1016.5 1016.5 6.8
28/05:30am 12.3 8.8 12.3 100 0.0 SSE 22 32 12 17 1015.9 1015.9 6.4
28/05:22am 12.4 8.6 12.4 100 0.0 SSE 24 32 13 17 1015.8 1015.8 6.2
28/05:12am 12.3 8.8 12.3 100 0.0 SSE 22 32 12 17 1015.7 1015.7 6.2
28/05:00am 12.3 8.5 12.3 100 0.0 SSE 24 37 13 20 1015.6 1015.6 6.2
28/04:30am 12.3 8.8 12.3 100 0.0 SSE 22 33 12 18 1015.4 1015.4 6.2
28/04:22am 12.4 9.4 12.4 100 0.0 SSE 20 26 11 14 1015.4 1015.4 6.2
28/04:00am 12.5 9.1 12.5 100 0.0 SSE 22 32 12 17 1015.2 1015.2 6.2
28/03:30am 12.5 9.5 12.5 100 0.0 S 20 26 11 14 1014.7 1014.8 6.2
28/03:00am 12.5 9.5 12.5 100 0.0 SSE 20 30 11 16 1014.6 1014.7 6.2
28/02:30am 12.4 9.5 12.4 100 0.0 S 19 26 10 14 1014.6 1014.7 6.2
28/02:00am 12.5 9.7 12.5 100 0.0 SSE 19 26 10 14 1014.7 1014.8 6.2
28/01:30am 12.6 9.2 12.6 100 0.0 SSE 22 30 12 16 1014.8 1014.9 6.2
28/01:00am 12.7 9.7 12.7 100 0.0 SSE 20 32 11 17 1014.8 1014.9 6.2
28/12:30am 12.7 9.0 12.7 100 0.0 S 24 32 13 17 1014.6 1014.7 6.2
28/12:00am 12.8 10.1 12.8 100 0.0 S 19 26 10 14 1014.5 1014.6 6.2
 
Date/Time
EST
Temp
°C
App
Temp
°C
Dew
Point
°C
Rel
Hum
%
Delta-T
°C
Wind Press
QNH
hPa
Press
MSL
hPa
Rain since
9am
mm
Dir  Spd
km/h
Gust
km/h
Spd
kts
Gust
kts
27/11:30pm 12.8 10.1 12.8 100 0.0 S 19 24 10 13 1014.5 1014.6 6.2
27/11:00pm 12.8 10.1 12.8 100 0.0 S 19 28 10 15 1014.3 1014.4 6.2
27/10:30pm 12.7 10.7 12.7 100 0.0 SSE 15 19 8 10 1014.2 1014.3 6.2
27/10:00pm 12.6 10.2 12.6 100 0.0 S 17 24 9 13 1014.0 1014.1 6.2
27/09:30pm 12.6 10.6 12.6 100 0.0 SSE 15 20 8 11 1014.1 1014.2 6.0
27/09:00pm 12.6 9.8 12.6 100 0.0 S 19 24 10 13 1014.1 1014.2 5.8
27/08:30pm 13.0 10.3 12.8 99 0.1 S 19 24 10 13 1013.9 1014.0 5.6
27/08:00pm 12.9 10.0 12.9 100 0.0 S 20 28 11 15 1013.6 1013.7 5.6
27/07:30pm 13.1 10.1 12.6 97 0.3 SSE 20 28 11 15 1013.2 1013.3 5.6
27/07:00pm 13.1 10.2 12.9 99 0.1 SSE 20 28 11 15 1012.8 1012.9 5.6
27/06:30pm 13.4 10.5 12.8 96 0.3 SSE 20 33 11 18 1012.6 1012.7 5.2
27/06:00pm 13.5 10.6 13.0 97 0.3 SSE 20 32 11 17 1012.1 1012.2 5.2
27/05:30pm 13.7 11.1 13.7 100 0.0 S 20 28 11 15 1011.7 1011.8 5.2
27/05:00pm 13.6 10.9 13.6 100 0.0 SSE 20 28 11 15 1011.4 1011.5 5.2
27/04:30pm 13.7 10.7 13.7 100 0.0 S 22 30 12 16 1011.1 1011.2 5.2
27/04:04pm 13.5 10.4 13.5 100 0.0 S 22 30 12 16 1011.0 1011.1 5.2
27/04:00pm 13.5 10.4 13.5 100 0.0 S 22 28 12 15 1011.0 1011.1 5.2
27/03:48pm 13.4 9.5 13.4 100 0.0 SSE 26 37 14 20 1011.1 1011.2 4.2
27/03:30pm 13.7 10.7 13.7 100 0.0 S 22 30 12 16 1011.0 1011.1 3.4
27/03:07pm 13.9 10.5 13.7 99 0.1 S 24 35 13 19 1011.0 1011.1 3.4
27/03:00pm 14.1 10.7 13.6 97 0.3 S 24 32 13 17 1011.0 1011.1 3.4
27/02:30pm 14.2 12.3 14.2 100 0.0 SSW 17 22 9 12 1011.1 1011.2 3.4
27/02:14pm 13.5 11.4 13.5 100 0.0 SSW 17 20 9 11 1011.2 1011.3 3.4
27/02:00pm 13.3 10.7 13.3 100 0.0 SSW 19 24 10 13 1011.2 1011.3 3.0
27/01:56pm 13.2 10.9 13.0 99 0.1 S 17 24 9 13 1011.3 1011.4 2.6
27/01:30pm 13.6 11.4 13.3 98 0.2 S 17 26 9 14 1011.6 1011.7 1.0
27/01:00pm 13.7 10.9 12.6 93 0.6 S 19 28 10 15 1011.8 1011.9 0.4
27/12:30pm 13.5 10.7 13.3 99 0.1 S 20 26 11 14 1011.9 1012.0 0.4
27/12:21pm 13.4 10.8 13.1 98 0.2 SSW 19 26 10 14 1012.1 1012.2 0.4
27/12:00pm 13.1 9.9 12.0 93 0.6 S 20 28 11 15 1012.4 1012.5 0.0
27/11:30am 13.7 10.0 11.4 86 1.2 S 22 30 12 16 1012.4 1012.5 0.0
27/11:07am 14.4 11.4 12.1 86 1.2 S 19 28 10 15 1012.3 1012.4 0.0
27/11:00am 14.5 11.5 12.0 85 1.4 S 19 24 10 13 1012.3 1012.4 0.0
27/10:30am 15.2 12.3 12.3 83 1.6 S 19 24 10 13 1012.3 1012.4 0.0
27/10:00am 14.8 12.2 12.1 84 1.5 S 17 24 9 13 1012.4 1012.5 0.0
27/09:30am 13.4 10.5 11.1 86 1.2 SSW 17 24 9 13 1012.6 1012.7 0.0
27/09:00am 12.8 10.3 11.2 90 0.8 SSW 15 19 8 10 1012.6 1012.7 2.6
27/08:30am 12.0 10.2 10.7 92 0.7 SW 11 15 6 8 1012.7 1012.8 2.6
27/08:00am 11.6 10.3 11.1 97 0.3 S 9 13 5 7 1012.6 1012.7 2.6
27/07:30am 11.3 10.4 10.8 97 0.3 S 6 7 3 4 1012.6 1012.7 2.6
27/07:00am 11.0 9.9 10.5 97 0.3 S 7 7 4 4 1012.4 1012.5 2.6
27/06:30am 10.8 9.5 10.0 95 0.4 S 7 9 4 5 1012.3 1012.4 2.6
27/06:00am 10.4 9.1 9.9 97 0.3 NNW 7 9 4 5 1012.0 1012.1 2.6
27/05:30am 10.6 8.9 9.8 95 0.4 NNW 9 11 5 6 1011.8 1011.9 2.6
27/05:00am 10.3 9.1 9.5 95 0.4 NNW 6 7 3 4 1011.8 1011.9 2.6
27/04:30am 10.6 10.7 10.0 96 0.3 CALM 0 0 0 0 1011.8 1011.9 2.6
27/04:00am 10.9 9.8 10.0 94 0.5 NNW 6 7 3 4 1012.0 1012.1 2.6
27/03:30am 11.2 10.1 9.8 91 0.7 NNW 6 9 3 5 1011.9 1012.0 2.6
27/03:00am 11.2 9.4 9.6 90 0.8 N 9 11 5 6 1011.9 1012.0 2.6
27/02:30am 11.2 9.4 9.5 89 0.9 N 9 11 5 6 1011.9 1012.0 2.6
27/02:00am 11.1 9.3 9.4 89 0.9 N 9 11 5 6 1012.3 1012.4 2.6
27/01:30am 10.9 9.1 9.5 91 0.7 NNE 9 11 5 6 1012.6 1012.7 2.6
27/01:00am 10.8 9.6 9.6 92 0.6 NNE 6 9 3 5 1012.9 1013.0 2.6
27/12:30am 10.8 9.4 9.7 93 0.6 NNE 7 9 4 5 1012.9 1013.0 2.6
27/12:00am 11.1 9.9 9.5 90 0.8 NNE 6 7 3 4 1013.1 1013.2 2.6
 
Date/Time
EST
Temp
°C
App
Temp
°C
Dew
Point
°C
Rel
Hum
%
Delta-T
°C
Wind Press
QNH
hPa
Press
MSL
hPa
Rain since
9am
mm
Dir  Spd
km/h
Gust
km/h
Spd
kts
Gust
kts
26/11:30pm 10.9 9.7 9.7 92 0.6 NNE 6 6 3 3 1013.2 1013.3 2.6
26/11:00pm 11.0 11.1 10.1 94 0.5 CALM 0 4 0 2 1013.4 1013.5 2.6
26/10:30pm 11.0 11.0 9.9 93 0.6 CALM 0 6 0 3 1013.4 1013.5 2.6
26/10:00pm 10.9 10.6 10.0 94 0.5 NNE 2 7 1 4 1013.7 1013.8 2.6
26/09:30pm 10.8 9.7 10.0 95 0.4 NNE 6 7 3 4 1013.6 1013.7 2.6
26/09:00pm 10.8 9.5 9.9 94 0.5 NNE 7 9 4 5 1013.8 1013.9 2.6
26/08:30pm 10.9 9.2 9.8 93 0.6 NNE 9 13 5 7 1013.7 1013.8 2.6
26/08:00pm 10.9 8.9 10.1 95 0.4 NNE 11 15 6 8 1013.6 1013.7 2.6
26/07:30pm 10.9 9.3 10.1 95 0.4 NNE 9 11 5 6 1013.5 1013.6 2.6
26/07:00pm 11.0 7.8 9.9 93 0.6 NNE 17 22 9 12 1013.5 1013.6 2.6
26/06:30pm 11.5 8.4 10.4 93 0.6 N 17 28 9 15 1013.4 1013.5 2.6
26/06:00pm 11.6 8.1 10.2 91 0.7 NNE 19 26 10 14 1013.2 1013.3 2.6
26/05:30pm 11.6 9.5 11.1 97 0.3 NNE 13 20 7 11 1013.1 1013.2 2.6
26/05:00pm 11.4 9.4 11.4 100 0.0 N 13 20 7 11 1013.1 1013.2 2.6
26/04:43pm 11.2 8.7 11.2 100 0.0 N 15 22 8 12 1013.0 1013.1 2.6
26/04:30pm 11.1 8.6 11.1 100 0.0 N 15 22 8 12 1013.1 1013.2 2.6
26/04:08pm 11.2 9.5 11.2 100 0.0 N 11 15 6 8 1013.2 1013.3 2.4
26/04:06pm 11.0 9.6 11.0 100 0.0 N 9 15 5 8 1013.2 1013.3 2.4
26/04:00pm 11.0 9.2 11.0 100 0.0 N 11 20 6 11 1013.2 1013.3 2.2
26/03:31pm 11.0 8.8 10.8 99 0.1 NNW 13 19 7 10 1013.3 1013.4 1.4
26/03:30pm 11.2 9.1 11.0 99 0.1 NNW 13 17 7 9 1013.3 1013.4 1.4
26/03:11pm 11.0 8.7 10.5 97 0.3 NNW 13 20 7 11 1013.4 1013.5 1.0
26/03:00pm 10.9 7.2 10.3 96 0.3 NNW 20 28 11 15 1013.4 1013.5 0.8
26/02:43pm 11.5 7.8 10.1 91 0.7 NNW 20 30 11 16 1013.6 1013.7 0.0
26/02:30pm 12.9 8.9 9.2 78 1.9 NNW 20 30 11 16 1013.4 1013.5 0.0
26/02:00pm 14.1 10.9 9.9 76 2.2 N 17 26 9 14 1013.4 1013.5 0.0
26/01:30pm 13.4 10.4 10.8 84 1.4 N 17 24 9 13 1013.5 1013.6 0.0
26/01:00pm 14.0 9.5 8.6 70 2.7 N 22 30 12 16 1013.8 1013.9 0.0
26/12:30pm 14.3 10.2 8.5 68 2.9 N 20 32 11 17 1013.9 1014.0 0.0
26/12:00pm 14.4 10.6 9.2 71 2.7 N 19 26 10 14 1014.2 1014.3 0.0
26/11:30am 13.9 10.4 8.7 71 2.6 N 17 26 9 14 1014.5 1014.6 0.0
26/11:00am 13.7 10.9 8.7 72 2.5 N 13 19 7 10 1014.7 1014.8 0.0
26/10:30am 13.6 9.1 8.4 71 2.6 N 22 30 12 16 1015.0 1015.1 0.0
26/10:00am 13.7 9.7 9.2 74 2.3 N 20 28 11 15 1015.4 1015.4 0.0
26/09:30am 13.2 9.3 9.6 79 1.8 N 20 30 11 16 1015.5 1015.5 0.0
26/09:00am 13.2 8.8 8.9 75 2.2 N 22 37 12 20 1015.5 1015.5 0.0
26/08:30am 13.7 10.9 9.9 78 2.0 N 15 24 8 13 1015.3 1015.3 0.0
26/08:00am 12.5 8.7 9.1 80 1.7 N 19 24 10 13 1015.6 1015.6 0.0
26/07:30am 11.9 7.9 9.1 83 1.4 N 20 28 11 15 1015.5 1015.5 0.0
26/07:00am 11.6 8.9 8.8 83 1.4 N 13 19 7 10 1015.6 1015.6 0.0
26/06:37am 11.8 9.3 8.1 78 1.8 N 11 17 6 9 1015.6 1015.6 0.0
26/06:30am 11.9 9.4 8.0 77 1.9 N 11 13 6 7 1015.6 1015.6 0.0
26/06:18am 12.1 9.8 7.6 74 2.2 NNE 9 11 5 6 1015.4 1015.4 0.0
26/06:00am 12.3 10.9 7.2 71 2.5 N 4 7 2 4 1015.0 1015.1 0.0
26/05:30am 12.1 10.4 7.6 74 2.2 N 6 7 3 4 1015.2 1015.2 0.0
26/05:00am 12.6 10.7 7.5 71 2.5 NW 7 13 4 7 1014.9 1015.0 0.0
26/04:30am 12.4 10.2 7.9 74 2.2 N 9 15 5 8 1015.0 1015.1 0.0
26/04:00am 12.3 10.0 7.4 72 2.4 N 9 15 5 8 1015.0 1015.1 0.0
26/03:30am 12.7 9.8 6.7 67 2.9 NNE 11 13 6 7 1014.8 1014.9 0.0
26/03:00am 12.7 9.5 7.0 68 2.8 N 13 20 7 11 1015.0 1015.1 0.0
26/02:30am 12.8 8.8 6.8 67 2.9 N 17 22 9 12 1015.3 1015.3 0.0
26/02:00am 12.7 8.8 7.0 68 2.8 N 17 24 9 13 1015.6 1015.6 0.0
26/01:30am 13.0 8.6 6.6 65 3.1 N 19 24 10 13 1016.1 1016.1 0.0
26/01:00am 13.0 9.1 7.0 67 2.9 N 17 20 9 11 1016.5 1016.5 0.0
26/12:30am 13.1 8.8 7.1 67 2.9 NNW 19 24 10 13 1016.7 1016.7 0.0
26/12:00am 12.8 9.3 7.3 69 2.7 N 15 22 8 12 1016.6 1016.6 0.0
 
Date/Time
EST
Temp
°C
App
Temp
°C
Dew
Point
°C
Rel
Hum
%
Delta-T
°C
Wind Press
QNH
hPa
Press
MSL
hPa
Rain since
9am
mm
Dir  Spd
km/h
Gust
km/h
Spd
kts
Gust
kts
25/11:30pm 12.6 9.1 7.3 70 2.6 N 15 20 8 11 1016.5 1016.5 0.0
25/11:00pm 12.8 9.3 7.3 69 2.7 N 15 22 8 12 1016.7 1016.7 0.0
25/10:30pm 12.6 8.7 7.3 70 2.6 N 17 22 9 12 1016.8 1016.8 0.0
25/10:00pm 12.7 9.6 7.2 69 2.7 N 13 20 7 11 1016.8 1016.8 0.0
25/09:30pm 12.9 9.7 6.7 66 3.0 N 13 20 7 11 1016.7 1016.7 0.0
25/09:00pm 13.0 9.4 6.8 66 3.0 N 15 22 8 12 1016.3 1016.3 0.0
25/08:30pm 13.3 9.7 6.9 65 3.1 N 15 20 8 11 1016.4 1016.4 0.0
25/08:00pm 12.6 10.4 6.4 66 3.0 N 7 13 4 7 1016.2 1016.2 0.0
25/07:30pm 13.5 10.6 6.6 63 3.3 N 11 13 6 7 1015.9 1015.9 0.0
25/07:00pm 13.9 11.0 6.7 62 3.5 N 11 15 6 8 1015.7 1015.7 0.0
25/06:30pm 14.7 11.3 6.0 56 4.2 N 13 17 7 9 1015.3 1015.3 0.0
25/06:00pm 16.7 12.8 5.3 47 5.5 NNW 15 22 8 12 1015.0 1015.1 0.0
25/05:30pm 17.2 13.8 5.8 47 5.6 NNW 13 19 7 10 1014.5 1014.6 0.0
25/05:00pm 17.8 15.1 7.2 50 5.3 N 11 17 6 9 1014.3 1014.4 0.0
25/04:30pm 17.8 14.9 6.3 47 5.7 NNW 11 17 6 9 1014.2 1014.3 0.0
25/04:00pm 17.8 15.2 6.0 46 5.8 NNE 9 20 5 11 1014.1 1014.2 0.0
25/03:30pm 18.0 14.5 5.6 44 6.1 N 13 22 7 12 1014.4 1014.5 0.0
25/03:00pm 18.1 15.9 6.0 45 6.0 WNW 7 19 4 10 1014.7 1014.8 0.0
25/02:30pm 17.6 14.8 6.8 49 5.4 N 11 24 6 13 1015.0 1015.1 0.0
25/02:00pm 17.4 13.9 5.4 45 5.8 NNW 13 19 7 10 1015.5 1015.5 0.0
25/01:30pm 16.6 12.7 5.3 47 5.4 NW 15 20 8 11 1015.6 1015.6 0.0
25/01:00pm 16.0 12.3 4.7 47 5.3 NNW 13 20 7 11 1015.8 1015.8 0.0
25/12:30pm 15.8 11.7 4.2 46 5.4 N 15 20 8 11 1015.6 1015.6 0.0
25/12:00pm 16.1 13.4 5.4 49 5.1 NNW 9 15 5 8 1015.9 1015.9 0.0
25/11:30am 15.3 11.9 3.8 46 5.3 NNW 11 19 6 10 1016.3 1016.3 0.0
25/11:00am 15.3 11.7 5.0 50 4.9 NNW 13 22 7 12 1016.4 1016.4 0.0

Other formats

Comma delimited format used in spreadsheet applications
http://www.bom.gov.au/fwo/IDV60801/IDV60801.95866.axf

JavaScript Object Notation format (JSON) in row-major order
http://www.bom.gov.au/fwo/IDV60801/IDV60801.95866.json

Data quality

Most of these data are generated automatically and are frequently updated. Quality checks on data are not normally performed. It is possible for incorrect values to appear. Refer to information at About Latest Weather Observations and please check the disclaimer before using these data.